x

Gulf Of Maine - 78 Nm East Of Portsmouth, Nh (44005) Wave Buoy

12:50 - Thu 2nd Oct 2014 All times are EDT. -4 hours from GMT.

  • Sig Wave height 7.5ft
  • Peak Period 7s
  • Average Period 6s
  • Wind
    25mph, 27mph gusts
  • Sea Temp 58°f
  • Air Temp 56°f
  • Sea Pressure 1019.1mb
  • Gulf Of Maine - 78 Nm East Of Portsmouth, Nh
  • Gulf Of Maine - 78 Nm East Of Portsmouth, Nh

More Historic Weather Station data

Upgrade to MSW Pro to gain access to the past 30 days of data for over 8000 Wavebouys and Weather Stations around the globe.

Join Pro

Comparision Forecast

View Surf forecast
   
jeu. 10/02 12:50 7.5ft 7s 6s 25 27 mph 1019.1mb 58f 56f
mer. 10/01 11:50 7ft 7s 6s 25 29 mph 1019.3mb 58f 56f
10:50 7ft 6s 5s 25 29 mph 1019.3mb 58f 56f
9:50 6.5ft 7s 5s 27 31 mph 1019.2mb 58f 57f
8:50 5.5ft 6s 5s 27 34 mph 1018.5mb 59f 57f
7:50 6ft 6s 5s 25 29 mph 1018.8mb 59f 58f
6:50 6ft 6s 5s 25 29 mph 1018.3mb 58f 57f
5:50 6ft 6s 5s 25 31 mph 1017.8mb 58f 57f
4:50 6ft 6s 5s 25 29 mph 1017.4mb 59f 57f
3:50 5.5ft 6s 5s 22 27 mph 1017.5mb 59f 57f
2:50 5.5ft 6s 5s 25 29 mph 1017.4mb 59f 56f
1:50 6ft 6s 5s 27 31 mph 1017.3mb 59f 56f
12:50 5.5ft 6s 5s 27 31 mph 1017.1mb 59f 56f
11:50 5ft 6s 5s 27 31 mph 1017.5mb 58f 56f
10:50 4.5ft 6s 4s 22 29 mph 1018.3mb 58f 56f
9:50 4ft 5s 4s 25 29 mph 1017.9mb 58f 56f
8:50 4.5ft 5s 4s 22 27 mph 1017.6mb 58f 56f
7:50 4ft 5s 4s 20 25 mph 1017.2mb 58f 57f
6:50 4ft 4s 4s 18 22 mph 1016.6mb 59f 57f
5:50 4ft 5s 4s 20 25 mph 1015.7mb 59f 56f
4:50 3.5ft 5s 4s 20 25 mph 1015.5mb 59f 56f
3:50 3.5ft 5s 4s 18 22 mph 1015.5mb 59f 57f
2:50 3.5ft 5s 4s 18 20 mph 1015.9mb 59f 57f
1:50 3.5ft 5s 4s 18 22 mph 1016.2mb 59f 57f
12:50 4ft 5s 4s 20 22 mph 1016.2mb 59f 57f
mar. 09/30 11:50 4ft 5s 4s 18 22 mph 1016.4mb 59f 56f
10:50 4ft 5s 4s 18 20 mph 1016.4mb 60f 56f
9:50 3.5ft 6s 4s 18 22 mph 1016mb 60f 56f
8:50 3.5ft 5s 4s 18 20 mph 1016.1mb 60f 56f
7:50 4ft 5s 4s 18 22 mph 1015.7mb 60f 56f
6:50 4ft 5s 4s 20 22 mph 1015.4mb 60f 55f
5:50 4ft 6s 4s 22 25 mph 1014.9mb 60f 55f
4:50 4.5ft 6s 4s 20 22 mph 1015.1mb 60f 55f
3:50 4.5ft 6s 4s 20 22 mph 1015mb 60f 55f
2:50 4.5ft 6s 4s 20 25 mph 1015.2mb 60f 55f
1:50 5ft 6s 5s 20 25 mph 1015.1mb 60f 55f
12:50 5ft 6s 5s 20 22 mph 1015.3mb 60f 56f
11:50 5.5ft 6s 5s 20 25 mph 1015.8mb 60f 55f
10:50 6ft 6s 5s 22 27 mph 1015.9mb 60f 55f
9:50 5.5ft 7s 5s 25 27 mph 1015.5mb 60f 55f
8:50 6ft 6s 5s 22 25 mph 1015.7mb 60f 56f
7:50 6.5ft 7s 5s 22 27 mph 1014.8mb 60f 57f
6:50 6.5ft 7s 5s 22 25 mph 1014.6mb 60f 57f
5:50 6ft 7s 5s 22 25 mph 1014.3mb 60f 57f
4:50 6ft 8s 5s 20 25 mph 1014.3mb 61f 57f
3:50 6ft 7s 5s 27 29 mph 1013.4mb 62f 57f
2:50 6.5ft 8s 5s 20 25 mph 1014.1mb 62f 58f
1:50 7ft 7s 6s 20 25 mph 1014.4mb 62f 58f
12:50 7.5ft 8s 6s 20 27 mph 1014.1mb 62f 58f
lun. 09/29 11:50 7ft 8s 6s 22 27 mph 1014.6mb 62f 58f
10:50 8ft 8s 6s 22 27 mph 1014.5mb 61f 59f
9:50 8.5ft 8s 6s 22 27 mph 1015mb 61f 58f
8:50 9ft 8s 6s 27 34 mph 1014.9mb 61f 57f
7:50 8.5ft 8s 6s 25 31 mph 1015.4mb 61f 57f
6:50 7.5ft 8s 5s 27 31 mph 1015mb 61f 57f
5:50 7ft 7s 5s 27 31 mph 1014.6mb 61f 58f
4:50 6.5ft 6s 5s 27 31 mph 1014.5mb 61f 58f
3:50 6ft 6s 4s 27 29 mph 1014.3mb 61f 58f
2:50 5ft 5s 4s 27 31 mph 1014.3mb 62f 58f
1:50 3.5ft 4s 4s 27 31 mph 1013.9mb 62f 59f
12:50 2.5ft 3s 3s 25 31 mph 1014.1mb 62f 60f
11:50 2ft 8s 4s 16 18 mph 1014.5mb 62f 63f
10:50 1.6ft 5s 5s 11 13 mph 1014.6mb 62f 63f
9:50 2ft 5s 5s 9 11 mph 1014.4mb 62f 63f
8:50 2ft 5s 5s 9 11 mph 1014.2mb 62f 63f
7:50 2.5ft 5s 5s 4
mph
1013.8mb 62f 63f
6:50 2.5ft 5s 5s 7
mph
1013.3mb 62f 63f
5:50 2.5ft 4s 4s 7 9 mph 1013.1mb 63f 64f
4:50 2.5ft 5s 4s 11 13 mph 1013mb 64f 64f
3:50 2.5ft 5s 4s 11 13 mph 1012.9mb 64f 65f
2:50 2.5ft 5s 4s 11 16 mph 1012.8mb 64f 65f
1:50 2.5ft 5s 4s 13 16 mph 1013mb 64f 65f
12:50 2.5ft 5s 4s 16 18 mph 1013.2mb 63f 65f
dim. 09/28 11:50 2.5ft 4s 4s 16 18 mph 1013.5mb 63f 65f
10:50 3ft 4s 4s 16 18 mph 1014mb 63f 65f
9:50 2.5ft 4s 4s 16 18 mph 1014.6mb 63f 65f
8:50 2.5ft 4s 4s 13 16 mph 1014.8mb 63f 65f
7:50 2.5ft 4s 4s 13 16 mph 1014.9mb 63f 65f
6:50 2.5ft 3s 4s 16 18 mph 1014.9mb 63f 65f
5:50 2ft 8s 4s 16 18 mph 1015.1mb 63f 66f
4:50 2ft 8s 4s 13 16 mph 1015.3mb 64f 66f
3:50 1.6ft 8s 4s 13 16 mph 1015.8mb 64f 66f
2:50 1.6ft 9s 4s 13 16 mph 1016.2mb 64f 66f
1:50 1.6ft 8s 4s 11
mph
1016.7mb 63f 65f
12:50 1.6ft 7s 4s 9 11 mph 1017.7mb 64f 65f
11:50 1.6ft 7s 5s 11
mph
1018.4mb 64f 65f
10:50 1.6ft 7s 4s 11 13 mph 1019mb 64f 65f
9:50 1.6ft 9s 4s 9 11 mph 1019.7mb 63f 65f
8:50 1.6ft 7s 5s 11 13 mph 1020mb 63f 65f
7:50 2ft 7s 6s 11
mph
1020.3mb 63f 65f
6:50 1.6ft 8s 6s 9 11 mph 1020.1mb 63f 65f